createdAt,value
2018-03-17T00:04:06.107Z,-2.37
2018-03-17T00:09:08.571Z,-2.38
2018-03-17T00:14:11.167Z,-2.47
2018-03-17T00:19:13.688Z,-2.50
2018-03-17T00:24:16.199Z,-2.55
2018-03-17T00:29:23.474Z,-2.56
2018-03-17T00:34:26.894Z,-2.58
2018-03-17T00:39:29.349Z,-2.68
2018-03-17T00:44:31.813Z,-2.76
2018-03-17T00:49:34.273Z,-2.81
2018-03-17T00:54:36.760Z,-2.89
2018-03-17T00:59:39.238Z,-2.94
2018-03-17T01:04:41.732Z,-2.95
2018-03-17T01:09:44.218Z,-3.04
2018-03-17T01:14:46.677Z,-3.07
2018-03-17T01:19:49.250Z,-3.18
2018-03-17T01:24:51.721Z,-3.29
2018-03-17T01:29:54.209Z,-3.38
2018-03-17T01:34:56.707Z,-3.41
2018-03-17T01:39:59.197Z,-3.57
2018-03-17T01:45:01.687Z,-3.59
2018-03-17T01:50:04.170Z,-3.63
2018-03-17T01:55:06.660Z,-3.65
2018-03-17T02:00:09.150Z,-3.69
2018-03-17T02:05:11.640Z,-3.79
2018-03-17T02:10:14.155Z,-3.90
2018-03-17T02:15:16.625Z,-3.94
2018-03-17T02:20:19.106Z,-4.03
2018-03-17T02:25:21.570Z,-4.08
2018-03-17T02:30:24.062Z,-4.03
2018-03-17T02:35:26.613Z,-4.14
2018-03-17T02:40:29.032Z,-4.11
2018-03-17T02:45:31.516Z,-4.20
2018-03-17T02:50:34.001Z,-4.19
2018-03-17T02:55:36.484Z,-4.27
2018-03-17T03:00:38.962Z,-4.20
2018-03-17T03:05:41.438Z,-4.23
2018-03-17T03:10:44.017Z,-4.26
2018-03-17T03:15:47.434Z,-4.33
2018-03-17T03:20:49.894Z,-4.32
2018-03-17T03:25:52.386Z,-4.36
2018-03-17T03:30:55.001Z,-4.40
2018-03-17T03:35:57.549Z,-4.42
2018-03-17T03:41:00.021Z,-4.45
2018-03-17T03:46:02.529Z,-4.43
2018-03-17T03:51:05.089Z,-4.50
2018-03-17T03:56:07.567Z,-4.44
2018-03-17T04:01:10.069Z,-4.41
2018-03-17T04:06:12.565Z,-4.48
2018-03-17T04:11:15.034Z,-4.51
2018-03-17T04:16:17.576Z,-4.49
2018-03-17T04:21:20.085Z,-4.44
2018-03-17T04:26:22.546Z,-4.47
2018-03-17T04:31:25.975Z,-4.52
2018-03-17T04:36:28.519Z,-4.53
2018-03-17T04:41:31.004Z,-4.55
2018-03-17T04:46:33.480Z,-4.58
2018-03-17T04:51:35.954Z,-4.58
2018-03-17T04:56:38.403Z,-4.62
2018-03-17T05:01:41.003Z,-4.62
2018-03-17T05:06:43.502Z,-4.63
2018-03-17T05:11:45.990Z,-4.64
2018-03-17T05:16:48.451Z,-4.74
2018-03-17T05:21:50.907Z,-4.68
2018-03-17T05:26:53.360Z,-4.71
2018-03-17T05:31:55.864Z,-4.72
2018-03-17T05:36:58.359Z,-4.69
2018-03-17T05:42:00.839Z,-4.65
2018-03-17T05:47:03.307Z,-4.60
2018-03-17T05:52:05.800Z,-4.49
2018-03-17T05:57:08.295Z,-4.60
2018-03-17T06:02:10.760Z,-4.65
2018-03-17T06:07:13.367Z,-4.54
2018-03-17T06:12:15.902Z,-4.50
2018-03-17T06:17:18.391Z,-4.51
2018-03-17T06:22:20.995Z,-4.27
2018-03-17T06:27:23.498Z,-4.38
2018-03-17T06:32:26.014Z,-4.17
2018-03-17T06:37:28.475Z,-3.86
2018-03-17T06:42:30.987Z,-3.96
2018-03-17T06:47:33.460Z,-3.91
2018-03-17T06:52:35.925Z,-3.83
2018-03-17T06:57:38.419Z,-3.81
2018-03-17T07:02:40.914Z,-3.88
2018-03-17T07:07:43.410Z,-3.74
2018-03-17T07:12:45.874Z,-3.97
2018-03-17T07:17:48.326Z,-3.65
2018-03-17T07:22:50.808Z,-3.40
2018-03-17T07:27:53.258Z,-3.74
2018-03-17T07:32:55.701Z,-3.57
2018-03-17T07:37:58.165Z,-3.36
2018-03-17T07:43:00.596Z,-2.64
2018-03-17T07:48:03.203Z,-3.02
2018-03-17T07:53:05.677Z,-3.35
2018-03-17T07:58:08.170Z,-2.73
2018-03-17T08:03:10.649Z,-2.74
2018-03-17T08:08:13.241Z,-3.50
2018-03-17T08:13:15.726Z,-3.35
2018-03-17T08:18:18.204Z,-3.49
2018-03-17T08:23:20.683Z,-3.46
2018-03-17T08:28:23.247Z,-3.66
2018-03-17T08:33:25.703Z,-3.47
2018-03-17T08:38:28.183Z,-3.22
2018-03-17T08:43:30.664Z,-2.84
2018-03-17T08:48:33.113Z,-3.08
2018-03-17T08:53:35.588Z,-2.62
2018-03-17T08:58:38.053Z,-2.62
2018-03-17T09:03:40.533Z,-2.65
2018-03-17T09:08:54.839Z,-2.47
2018-03-17T09:13:57.404Z,-2.75
2018-03-17T09:18:59.876Z,-2.39
2018-03-17T09:24:02.350Z,-2.45
2018-03-17T09:29:04.820Z,-2.66
2018-03-17T09:34:07.283Z,-1.87
2018-03-17T09:39:09.917Z,-2.21
2018-03-17T09:44:12.411Z,-1.96
2018-03-17T09:49:14.883Z,-1.46
2018-03-17T09:54:17.386Z,-1.82
2018-03-17T09:59:19.851Z,-1.91
2018-03-17T10:04:22.330Z,-0.62
2018-03-17T10:09:24.860Z,-1.55
2018-03-17T10:14:27.313Z,-1.67
2018-03-17T10:19:29.764Z,-1.35
2018-03-17T10:24:32.220Z,-1.29
2018-03-17T10:29:34.684Z,-1.46
2018-03-17T10:34:37.147Z,-1.99
2018-03-17T10:39:39.601Z,-2.03
2018-03-17T10:44:42.107Z,-1.13
2018-03-17T10:49:44.586Z,-0.98
2018-03-17T10:54:47.053Z,-1.01
2018-03-17T10:59:49.530Z,-0.31
2018-03-17T11:04:51.999Z,0.13
2018-03-17T11:09:54.574Z,-0.12
2018-03-17T11:14:59.025Z,-0.28
2018-03-17T11:20:01.595Z,-1.08
2018-03-17T11:25:04.297Z,-0.92
2018-03-17T11:30:06.876Z,-1.13
2018-03-17T11:35:09.914Z,-0.83
2018-03-17T11:40:13.305Z,-0.77
2018-03-17T11:45:15.840Z,-0.34
2018-03-17T11:50:18.321Z,0.10
2018-03-17T11:55:20.813Z,0.43
2018-03-17T12:00:23.325Z,-0.34
2018-03-17T12:05:25.863Z,0.11
2018-03-17T12:10:28.344Z,-1.12
2018-03-17T12:15:30.835Z,-0.92
2018-03-17T12:20:33.342Z,-0.67
2018-03-17T12:25:36.137Z,-0.96
2018-03-17T12:30:41.366Z,-0.73
2018-03-17T12:35:43.976Z,-0.15
2018-03-17T12:40:46.513Z,-0.09
2018-03-17T12:45:49.062Z,0.29
2018-03-17T12:50:51.519Z,0.16
2018-03-17T12:55:53.999Z,-0.22
2018-03-17T13:00:56.505Z,0.20
2018-03-17T13:05:59.010Z,-0.17
2018-03-17T13:11:01.536Z,0.10
2018-03-17T13:16:04.036Z,-0.11
2018-03-17T13:21:06.644Z,-0.55
2018-03-17T13:26:09.457Z,0.32
2018-03-17T13:31:12.034Z,0.17
2018-03-17T13:36:26.362Z,-0.18
2018-03-17T13:41:28.888Z,0.02
2018-03-17T13:46:32.260Z,0.12
2018-03-17T13:51:34.926Z,-0.63
2018-03-17T13:56:37.480Z,-0.54
2018-03-17T14:01:39.971Z,-0.22
2018-03-17T14:06:42.606Z,-0.04
2018-03-17T14:11:45.278Z,-0.37
2018-03-17T14:16:47.813Z,0.19
2018-03-17T14:21:50.310Z,0.15
2018-03-17T14:26:52.811Z,-0.32
2018-03-17T14:31:55.313Z,-0.05
2018-03-17T14:36:57.785Z,-0.36
2018-03-17T14:42:00.267Z,-0.81
2018-03-17T14:47:02.775Z,-0.85
2018-03-17T14:52:05.360Z,-0.95
2018-03-17T14:57:07.868Z,-0.90
2018-03-17T15:02:12.430Z,-0.31
2018-03-17T15:07:15.718Z,-0.82
2018-03-17T15:12:18.569Z,-0.90
2018-03-17T15:17:21.066Z,-0.92
2018-03-17T15:22:23.556Z,-0.75
2018-03-17T15:27:26.007Z,-1.07
2018-03-17T15:32:28.524Z,-1.07
2018-03-17T15:37:31.030Z,-1.26
2018-03-17T15:42:33.501Z,-1.26
2018-03-17T15:47:36.275Z,-1.48
2018-03-17T15:52:39.384Z,-1.40
2018-03-17T15:57:42.758Z,-1.41
2018-03-17T16:02:49.776Z,-1.46
2018-03-17T16:07:52.470Z,-1.55
2018-03-17T16:12:55.062Z,-1.51
2018-03-17T16:17:57.557Z,-1.55
2018-03-17T16:23:00.091Z,-1.52
2018-03-17T16:28:02.608Z,-1.65
2018-03-17T16:33:05.124Z,-1.62
2018-03-17T16:38:07.643Z,-1.55
2018-03-17T16:43:10.365Z,-1.57
2018-03-17T16:48:13.165Z,-1.60
2018-03-17T16:53:15.702Z,-1.69
2018-03-17T16:58:18.191Z,-1.74
2018-03-17T17:03:20.808Z,-1.74
2018-03-17T17:08:23.242Z,-1.75
2018-03-17T17:13:25.734Z,-1.78
2018-03-17T17:18:28.242Z,-1.82
2018-03-17T17:23:30.738Z,-1.88
2018-03-17T17:28:33.240Z,-1.88
2018-03-17T17:33:35.934Z,-1.89
2018-03-17T17:38:38.548Z,-1.91
2018-03-17T17:43:41.128Z,-1.94
2018-03-17T17:48:43.745Z,-1.93
2018-03-17T17:53:46.213Z,-1.98
2018-03-17T17:58:48.714Z,-2.01
2018-03-17T18:03:51.248Z,-1.91
2018-03-17T18:08:53.739Z,-1.89
2018-03-17T18:13:56.221Z,-1.92
2018-03-17T18:18:58.764Z,-1.84
2018-03-17T18:24:01.326Z,-1.77
2018-03-17T18:29:03.827Z,-1.80
2018-03-17T18:34:06.339Z,-1.81
2018-03-17T18:39:08.867Z,-1.81
2018-03-17T18:44:11.565Z,-1.84
2018-03-17T18:49:14.220Z,-1.84
2018-03-17T18:54:16.738Z,-1.83
2018-03-17T18:59:19.236Z,-1.83
2018-03-17T19:04:22.952Z,-1.81
2018-03-17T19:09:25.459Z,-1.83
2018-03-17T19:14:28.028Z,-1.81
2018-03-17T19:19:30.733Z,-1.86
2018-03-17T19:24:33.708Z,-1.83
2018-03-17T19:29:36.570Z,-1.88
2018-03-17T19:34:39.562Z,-1.92
2018-03-17T19:39:42.210Z,-1.89
2018-03-17T19:44:44.753Z,-1.91
2018-03-17T19:49:47.275Z,-1.89
2018-03-17T19:54:49.806Z,-1.94
2018-03-17T19:59:52.384Z,-1.98
2018-03-17T20:04:55.055Z,-2.02
2018-03-17T20:15:06.454Z,-2.06
2018-03-17T20:20:09.150Z,-2.00
2018-03-17T20:25:12.238Z,-2.08
2018-03-17T20:30:14.800Z,-2.14
2018-03-17T20:35:17.318Z,-2.14
2018-03-17T20:40:19.976Z,-2.17
2018-03-17T20:45:22.494Z,-2.14
2018-03-17T20:50:24.994Z,-2.15
2018-03-17T20:55:27.829Z,-2.22
2018-03-17T21:00:31.197Z,-2.25
2018-03-17T21:05:36.029Z,-2.28
2018-03-17T21:10:38.958Z,-2.34
2018-03-17T21:15:41.794Z,-2.35
2018-03-17T21:20:45.732Z,-2.39
2018-03-17T21:25:48.501Z,-2.41
2018-03-17T21:30:50.986Z,-2.47
2018-03-17T21:35:53.437Z,-2.51
2018-03-17T21:40:55.934Z,-2.52
2018-03-17T21:45:58.424Z,-2.56
2018-03-17T21:51:00.921Z,-2.62
2018-03-17T21:56:03.399Z,-2.64
2018-03-17T22:01:07.440Z,-2.71
2018-03-17T22:06:10.888Z,-2.79
2018-03-17T22:11:15.154Z,-2.76
2018-03-17T22:16:17.677Z,-2.83
2018-03-17T22:21:20.776Z,-2.88
2018-03-17T22:26:23.949Z,-2.92
2018-03-17T22:31:27.841Z,-2.98
2018-03-17T22:36:30.976Z,-2.98
2018-03-17T22:41:34.715Z,-2.99
2018-03-17T22:46:39.636Z,-3.05
2018-03-17T22:51:42.148Z,-3.08
2018-03-17T22:56:47.010Z,-3.12
2018-03-17T23:01:49.497Z,-3.15
2018-03-17T23:06:52.906Z,-3.22
2018-03-17T23:11:55.401Z,-3.26
2018-03-17T23:16:57.908Z,-3.32
2018-03-17T23:22:00.385Z,-3.37
2018-03-17T23:27:02.888Z,-3.42
2018-03-17T23:32:05.509Z,-3.46
2018-03-17T23:37:08.069Z,-3.51
2018-03-17T23:42:10.622Z,-3.56
2018-03-17T23:47:13.153Z,-3.55
2018-03-17T23:52:16.077Z,-3.59
2018-03-17T23:57:18.586Z,-3.63
